createdAt,value
2023-07-26T00:01:34.965Z,14.76
2023-07-26T00:04:01.376Z,14.82
2023-07-26T00:06:27.863Z,14.80
2023-07-26T00:08:54.205Z,14.77
2023-07-26T00:11:20.575Z,14.80
2023-07-26T00:13:46.946Z,14.79
2023-07-26T00:16:13.416Z,14.79
2023-07-26T00:18:40.406Z,14.79
2023-07-26T00:21:07.272Z,14.83
2023-07-26T00:23:33.627Z,14.86
2023-07-26T00:26:00.018Z,14.90
2023-07-26T00:28:26.440Z,14.93
2023-07-26T00:30:52.843Z,14.95
2023-07-26T00:33:19.242Z,15.03
2023-07-26T00:35:45.629Z,14.99
2023-07-26T00:38:12.006Z,15.03
2023-07-26T00:40:40.030Z,14.99
2023-07-26T00:43:09.269Z,14.98
2023-07-26T00:45:37.030Z,14.87
2023-07-26T00:48:03.599Z,14.90
2023-07-26T00:50:29.998Z,14.81
2023-07-26T00:52:56.426Z,14.90
2023-07-26T00:55:22.775Z,14.83
2023-07-26T00:57:49.216Z,14.79
2023-07-26T01:00:15.625Z,14.78
2023-07-26T01:02:42.239Z,14.76
2023-07-26T01:05:08.897Z,14.84
2023-07-26T01:07:41.363Z,14.93
2023-07-26T01:10:15.035Z,14.81
2023-07-26T01:12:44.156Z,14.93
2023-07-26T01:15:11.853Z,14.87
2023-07-26T01:17:38.371Z,14.95
2023-07-26T01:20:04.975Z,14.87
2023-07-26T01:22:31.498Z,14.95
2023-07-26T01:24:58.172Z,14.88
2023-07-26T01:27:24.596Z,14.78
2023-07-26T01:29:55.546Z,14.76
2023-07-26T01:32:22.132Z,14.75
2023-07-26T01:34:48.500Z,14.73
2023-07-26T01:37:14.862Z,14.76
2023-07-26T01:39:41.311Z,14.67
2023-07-26T01:42:07.660Z,14.62
2023-07-26T01:44:37.773Z,14.64
2023-07-26T01:47:04.218Z,14.62
2023-07-26T01:49:30.572Z,14.66
2023-07-26T01:51:57.071Z,14.61
2023-07-26T01:54:23.451Z,14.59
2023-07-26T01:56:49.845Z,14.65
2023-07-26T01:59:16.191Z,14.67
2023-07-26T02:01:42.624Z,14.65
2023-07-26T02:04:09.094Z,14.63
2023-07-26T02:06:35.570Z,14.68
2023-07-26T02:09:02.055Z,14.60
2023-07-26T02:11:28.598Z,14.61
2023-07-26T02:13:54.998Z,14.59
2023-07-26T02:16:21.454Z,14.55
2023-07-26T02:18:47.852Z,14.53
2023-07-26T02:21:14.315Z,14.57
2023-07-26T02:23:40.706Z,14.52
2023-07-26T02:26:07.117Z,14.52
2023-07-26T02:28:33.562Z,14.53
2023-07-26T02:30:59.935Z,14.55
2023-07-26T02:33:26.326Z,14.57
2023-07-26T02:35:52.657Z,14.46
2023-07-26T02:38:19.054Z,14.51
2023-07-26T02:40:45.412Z,14.41
2023-07-26T02:43:11.806Z,14.36
2023-07-26T02:45:38.214Z,14.37
2023-07-26T02:48:04.726Z,14.44
2023-07-26T02:50:31.158Z,14.39
2023-07-26T02:52:57.596Z,14.35
2023-07-26T02:55:23.947Z,14.42
2023-07-26T02:57:50.337Z,14.44
2023-07-26T03:00:16.867Z,14.54
2023-07-26T03:02:43.445Z,14.43
2023-07-26T03:05:09.902Z,14.39
2023-07-26T03:07:36.510Z,14.51
2023-07-26T03:10:02.909Z,14.51
2023-07-26T03:12:29.261Z,14.54
2023-07-26T03:14:55.747Z,14.55
2023-07-26T03:17:23.515Z,14.50
2023-07-26T03:19:51.196Z,14.49
2023-07-26T03:22:17.652Z,14.51
2023-07-26T03:24:44.060Z,14.41
2023-07-26T03:27:10.462Z,14.51
2023-07-26T03:29:36.846Z,14.48
2023-07-26T03:32:03.194Z,14.44
2023-07-26T03:34:29.877Z,14.50
2023-07-26T03:36:56.367Z,14.48
2023-07-26T03:39:22.913Z,14.53
2023-07-26T03:41:49.272Z,14.51
2023-07-26T03:44:15.669Z,14.52
2023-07-26T03:46:42.042Z,14.54
2023-07-26T03:49:08.420Z,14.56
2023-07-26T03:51:34.864Z,14.64
2023-07-26T03:54:01.240Z,14.64
2023-07-26T03:56:27.678Z,14.58
2023-07-26T03:58:54.140Z,14.60
2023-07-26T04:01:20.543Z,14.66
2023-07-26T04:03:47.032Z,14.73
2023-07-26T04:06:13.649Z,14.65
2023-07-26T04:08:41.027Z,14.77
2023-07-26T04:11:07.825Z,14.77
2023-07-26T04:13:34.574Z,14.81
2023-07-26T04:16:01.455Z,14.79
2023-07-26T04:18:27.917Z,14.81
2023-07-26T04:20:54.607Z,14.89
2023-07-26T04:23:20.992Z,14.91
2023-07-26T04:25:51.137Z,14.90
2023-07-26T04:28:17.573Z,15.00
2023-07-26T04:30:44.930Z,15.04
2023-07-26T04:33:11.467Z,15.07
2023-07-26T04:35:37.851Z,15.10
2023-07-26T04:38:04.208Z,15.20
2023-07-26T04:40:30.781Z,15.28
2023-07-26T04:42:57.195Z,15.38
2023-07-26T04:45:23.651Z,15.49
2023-07-26T04:47:50.023Z,15.59
2023-07-26T04:50:16.437Z,15.58
2023-07-26T04:52:42.858Z,15.73
2023-07-26T04:55:09.438Z,15.85
2023-07-26T04:57:38.418Z,15.95
2023-07-26T05:00:05.008Z,16.02
2023-07-26T05:02:31.481Z,16.10
2023-07-26T05:04:57.874Z,16.07
2023-07-26T05:07:24.277Z,16.14
2023-07-26T05:09:50.649Z,16.25
2023-07-26T05:12:18.032Z,16.28
2023-07-26T05:14:45.420Z,16.26
2023-07-26T05:17:11.801Z,16.31
2023-07-26T05:19:38.261Z,16.38
2023-07-26T05:22:04.778Z,16.44
2023-07-26T05:24:31.300Z,16.48
2023-07-26T05:26:59.307Z,16.50
2023-07-26T05:29:27.732Z,16.57
2023-07-26T05:31:54.154Z,16.67
2023-07-26T05:34:20.563Z,16.65
2023-07-26T05:36:46.989Z,16.59
2023-07-26T05:39:13.840Z,16.61
2023-07-26T05:41:40.299Z,16.66
2023-07-26T05:44:06.844Z,16.69
2023-07-26T05:46:33.524Z,16.69
2023-07-26T05:48:59.930Z,16.83
2023-07-26T05:51:26.286Z,16.61
2023-07-26T05:53:52.627Z,16.48
2023-07-26T05:56:19.050Z,16.47
2023-07-26T05:58:47.098Z,16.47
2023-07-26T06:01:13.761Z,16.30
2023-07-26T06:03:40.158Z,16.39
2023-07-26T06:06:07.044Z,16.36
2023-07-26T06:08:33.499Z,16.37
2023-07-26T06:10:59.929Z,16.30
2023-07-26T06:13:26.303Z,16.33
2023-07-26T06:15:52.735Z,16.38
2023-07-26T06:18:19.164Z,16.29
2023-07-26T06:20:45.569Z,16.34
2023-07-26T06:23:11.950Z,16.40
2023-07-26T06:25:38.425Z,16.39
2023-07-26T06:28:04.799Z,16.34
2023-07-26T06:30:31.407Z,16.42
2023-07-26T06:32:57.849Z,16.45
2023-07-26T06:35:24.212Z,16.48
2023-07-26T06:37:50.577Z,16.50
2023-07-26T06:40:16.997Z,16.45
2023-07-26T06:42:43.340Z,16.55
2023-07-26T06:45:09.864Z,16.58
2023-07-26T06:47:36.302Z,16.70
2023-07-26T06:50:03.181Z,16.81
2023-07-26T06:52:31.053Z,16.81
2023-07-26T06:54:57.470Z,16.89
2023-07-26T06:57:23.834Z,16.98
2023-07-26T06:59:50.200Z,17.06
2023-07-26T07:02:16.577Z,17.05
2023-07-26T07:04:42.964Z,17.20
2023-07-26T07:07:09.384Z,17.32
2023-07-26T07:09:35.809Z,17.48
2023-07-26T07:12:02.195Z,17.61
2023-07-26T07:14:28.545Z,17.61
2023-07-26T07:16:54.924Z,17.71
2023-07-26T07:19:21.263Z,17.80
2023-07-26T07:21:47.693Z,17.82
2023-07-26T07:24:14.699Z,17.91
2023-07-26T07:26:41.059Z,17.95
2023-07-26T07:29:07.478Z,18.02
2023-07-26T07:31:34.124Z,18.05
2023-07-26T07:34:00.715Z,18.10
2023-07-26T07:36:27.085Z,18.14
2023-07-26T07:38:53.475Z,18.22
2023-07-26T07:41:19.832Z,18.28
2023-07-26T07:43:46.189Z,18.29
2023-07-26T07:46:12.604Z,18.34
2023-07-26T07:48:41.105Z,18.37
2023-07-26T07:51:07.470Z,18.40
2023-07-26T07:53:33.866Z,18.41
2023-07-26T07:56:00.324Z,18.42
2023-07-26T07:58:27.865Z,18.49
2023-07-26T08:00:58.141Z,18.49
2023-07-26T08:03:24.554Z,18.49
2023-07-26T08:05:51.361Z,18.47
2023-07-26T08:08:17.834Z,18.42
2023-07-26T08:10:44.414Z,18.41
2023-07-26T08:13:10.774Z,18.45
2023-07-26T08:15:40.438Z,18.35
2023-07-26T08:18:06.910Z,18.24
2023-07-26T08:20:36.586Z,18.24
2023-07-26T08:23:03.310Z,18.24
2023-07-26T08:25:30.363Z,18.29
2023-07-26T08:27:56.828Z,18.24
2023-07-26T08:30:23.284Z,18.34
2023-07-26T08:32:52.548Z,18.40
2023-07-26T08:35:20.375Z,18.46
2023-07-26T08:37:46.783Z,18.51
2023-07-26T08:40:13.272Z,18.52
2023-07-26T08:42:39.623Z,18.49
2023-07-26T08:45:06.641Z,18.44
2023-07-26T08:47:33.112Z,18.45
2023-07-26T08:49:59.573Z,18.50
2023-07-26T08:52:25.991Z,18.69
2023-07-26T08:54:52.616Z,18.76
2023-07-26T08:57:19.269Z,18.64
2023-07-26T08:59:45.656Z,18.67
2023-07-26T09:02:12.549Z,18.63
2023-07-26T09:04:39.008Z,19.04
2023-07-26T09:07:05.647Z,19.28
2023-07-26T09:09:32.627Z,19.61
2023-07-26T09:11:59.072Z,19.88
2023-07-26T09:14:27.407Z,19.87
2023-07-26T09:16:57.658Z,19.92
2023-07-26T09:19:34.089Z,19.89
2023-07-26T09:22:01.201Z,20.34
2023-07-26T09:24:29.497Z,21.15
2023-07-26T09:26:56.929Z,21.04
2023-07-26T09:29:23.358Z,21.60
2023-07-26T09:31:49.742Z,21.11
2023-07-26T09:34:18.083Z,21.22
2023-07-26T09:36:51.620Z,21.45
2023-07-26T09:39:28.084Z,21.25
2023-07-26T09:42:07.491Z,20.98
2023-07-26T09:44:34.139Z,20.70
2023-07-26T09:47:00.745Z,20.42
2023-07-26T09:49:28.364Z,19.95
2023-07-26T09:54:33.036Z,19.03
2023-07-26T09:57:00.550Z,18.21
2023-07-26T09:59:28.946Z,17.57
2023-07-26T10:01:55.831Z,17.10
2023-07-26T10:04:22.172Z,16.95
2023-07-26T10:06:48.545Z,16.59
2023-07-26T10:09:15.876Z,16.54
2023-07-26T10:11:43.181Z,16.33
2023-07-26T10:14:10.396Z,16.21
2023-07-26T10:16:37.192Z,16.14
2023-07-26T10:19:04.063Z,16.18
2023-07-26T10:21:30.950Z,16.25
2023-07-26T10:23:58.505Z,16.29
2023-07-26T10:26:27.005Z,16.36
2023-07-26T10:28:53.551Z,16.38
2023-07-26T10:31:23.645Z,16.34
2023-07-26T10:33:50.146Z,16.29
2023-07-26T10:36:17.566Z,16.51
2023-07-26T10:38:50.328Z,16.64
2023-07-26T10:41:28.589Z,16.78
2023-07-26T10:44:07.816Z,16.79
2023-07-26T10:46:51.326Z,16.79
2023-07-26T10:49:21.847Z,16.80
2023-07-26T10:51:52.042Z,17.03
2023-07-26T10:54:37.286Z,17.05
2023-07-26T10:57:33.501Z,17.09
2023-07-26T11:00:05.315Z,17.06
2023-07-26T11:02:36.237Z,17.13
2023-07-26T11:05:03.408Z,17.14
2023-07-26T11:07:48.795Z,17.26
2023-07-26T11:10:19.065Z,17.13
2023-07-26T11:12:45.475Z,17.09
2023-07-26T11:16:13.622Z,17.18
2023-07-26T11:17:58.318Z,17.38
2023-07-26T11:20:24.854Z,17.38
2023-07-26T11:22:51.310Z,17.45
2023-07-26T11:25:17.792Z,17.46
2023-07-26T11:27:45.166Z,17.74
2023-07-26T11:30:15.477Z,17.84
2023-07-26T11:32:48.789Z,18.19
2023-07-26T11:35:23.263Z,18.11
2023-07-26T11:37:51.185Z,18.52
2023-07-26T11:40:17.563Z,18.75
2023-07-26T11:42:43.940Z,18.73
2023-07-26T11:45:10.630Z,18.58
2023-07-26T11:47:37.042Z,18.28
2023-07-26T11:50:04.134Z,17.38
2023-07-26T11:52:30.924Z,17.09
2023-07-26T11:54:59.106Z,16.98
2023-07-26T11:57:29.060Z,16.90
2023-07-26T11:59:56.089Z,16.64
2023-07-26T12:02:25.554Z,16.63
2023-07-26T12:05:10.942Z,16.61
2023-07-26T12:07:37.299Z,16.56
2023-07-26T12:10:03.716Z,16.49
2023-07-26T12:12:30.162Z,16.49
2023-07-26T12:14:57.386Z,16.57
2023-07-26T12:17:23.808Z,16.64
2023-07-26T12:19:50.677Z,16.58
2023-07-26T12:22:17.844Z,16.62
2023-07-26T12:24:50.589Z,16.72
2023-07-26T12:27:17.069Z,16.79
2023-07-26T12:29:43.416Z,16.58
2023-07-26T12:32:13.882Z,16.70
2023-07-26T12:34:43.460Z,16.89
2023-07-26T12:37:10.269Z,16.73
2023-07-26T12:39:39.831Z,16.66
2023-07-26T12:42:07.023Z,16.65
2023-07-26T12:44:34.300Z,16.69
2023-07-26T12:47:27.934Z,16.69
2023-07-26T12:49:48.436Z,16.76
2023-07-26T12:52:14.862Z,16.91
2023-07-26T12:54:41.240Z,17.08
2023-07-26T12:57:07.706Z,17.00
2023-07-26T12:59:43.379Z,17.06
2023-07-26T13:02:10.033Z,16.97
2023-07-26T13:04:36.567Z,17.08
2023-07-26T13:07:02.926Z,17.17
2023-07-26T13:09:29.329Z,17.21
2023-07-26T13:11:55.738Z,17.24
2023-07-26T13:14:22.086Z,17.30
2023-07-26T13:16:48.520Z,17.46
2023-07-26T13:19:14.891Z,17.35
2023-07-26T13:21:41.261Z,17.41
2023-07-26T13:24:07.652Z,17.41
2023-07-26T13:26:34.288Z,17.34
2023-07-26T13:29:02.070Z,17.41
2023-07-26T13:31:28.544Z,17.39
2023-07-26T13:33:54.967Z,17.26
2023-07-26T13:36:21.573Z,17.45
2023-07-26T13:38:47.970Z,17.62
2023-07-26T13:41:14.319Z,17.35
2023-07-26T13:43:40.681Z,17.57
2023-07-26T13:46:13.736Z,17.51
2023-07-26T13:48:50.421Z,17.69
2023-07-26T13:51:16.935Z,17.85
2023-07-26T13:53:43.365Z,17.92
2023-07-26T13:56:09.806Z,17.88
2023-07-26T13:58:36.230Z,17.94
2023-07-26T14:01:02.637Z,18.02
2023-07-26T14:03:29.082Z,18.09
2023-07-26T14:05:55.482Z,18.20
2023-07-26T14:08:21.977Z,18.30
2023-07-26T14:10:48.352Z,18.31
2023-07-26T14:13:15.681Z,18.13
2023-07-26T14:15:42.099Z,18.17
2023-07-26T14:18:08.539Z,18.14
2023-07-26T14:20:35.260Z,17.98
2023-07-26T14:23:01.651Z,17.85
2023-07-26T14:25:28.341Z,17.93
2023-07-26T14:27:55.167Z,17.86
2023-07-26T14:30:21.553Z,17.88
2023-07-26T14:32:47.955Z,17.91
2023-07-26T14:35:14.363Z,18.06
2023-07-26T14:37:40.765Z,18.05
2023-07-26T14:40:07.375Z,18.06
2023-07-26T14:42:33.768Z,18.06
2023-07-26T14:45:00.286Z,17.89
2023-07-26T14:47:27.146Z,18.01
2023-07-26T14:50:03.304Z,18.20
2023-07-26T14:52:30.707Z,18.20
2023-07-26T14:54:57.153Z,18.14
2023-07-26T14:57:23.529Z,18.02
2023-07-26T14:59:50.248Z,18.21
2023-07-26T15:02:19.828Z,17.99
2023-07-26T15:04:46.593Z,18.05
2023-07-26T15:07:13.413Z,17.88
2023-07-26T15:09:39.865Z,18.03
2023-07-26T15:12:07.106Z,17.93
2023-07-26T15:14:33.520Z,17.74
2023-07-26T15:16:59.958Z,17.73
2023-07-26T15:19:26.403Z,17.86
2023-07-26T15:21:52.923Z,17.96
2023-07-26T15:24:19.402Z,18.00
2023-07-26T15:26:45.838Z,18.43
2023-07-26T15:29:12.271Z,18.63
2023-07-26T15:31:38.685Z,18.67
2023-07-26T15:34:06.007Z,18.98
2023-07-26T15:36:32.556Z,18.99
2023-07-26T15:38:59.128Z,18.98
2023-07-26T15:41:34.012Z,19.08
2023-07-26T15:46:39.358Z,19.16
2023-07-26T15:49:08.340Z,19.15
2023-07-26T15:51:35.416Z,18.83
2023-07-26T15:54:01.962Z,19.08
2023-07-26T15:56:29.931Z,19.18
2023-07-26T15:58:56.381Z,19.34
2023-07-26T16:01:26.198Z,19.16
2023-07-26T16:03:53.857Z,19.14
2023-07-26T16:06:20.618Z,19.22
2023-07-26T16:11:17.442Z,19.01
2023-07-26T16:13:43.850Z,18.78
2023-07-26T16:19:12.618Z,18.40
2023-07-26T16:23:55.854Z,18.69
2023-07-26T16:26:22.217Z,18.75
2023-07-26T16:28:48.847Z,18.66
2023-07-26T16:31:16.237Z,18.63
2023-07-26T16:33:43.831Z,18.73
2023-07-26T16:36:10.305Z,18.91
2023-07-26T16:38:36.721Z,18.54
2023-07-26T16:41:03.133Z,18.29
2023-07-26T16:43:29.507Z,18.43
2023-07-26T16:45:56.016Z,18.70
2023-07-26T16:48:22.685Z,18.89
2023-07-26T16:50:49.104Z,18.86
2023-07-26T16:53:15.483Z,18.31
2023-07-26T16:55:42.868Z,18.55
2023-07-26T16:58:09.338Z,18.80
2023-07-26T17:00:36.184Z,18.99
2023-07-26T17:03:02.688Z,18.57
2023-07-26T17:05:29.268Z,18.74
2023-07-26T17:07:55.703Z,18.83
2023-07-26T17:10:22.105Z,18.99
2023-07-26T17:12:48.583Z,19.13
2023-07-26T17:15:16.031Z,19.16
2023-07-26T17:17:42.578Z,19.17
2023-07-26T17:20:09.221Z,19.06
2023-07-26T17:22:35.677Z,18.97
2023-07-26T17:25:02.119Z,19.12
2023-07-26T17:27:28.620Z,19.15
2023-07-26T17:29:55.074Z,19.01
2023-07-26T17:32:21.476Z,18.83
2023-07-26T17:34:47.872Z,18.38
2023-07-26T17:37:14.287Z,18.31
2023-07-26T17:39:40.645Z,18.65
2023-07-26T17:42:07.207Z,18.76
2023-07-26T17:44:36.163Z,18.90
2023-07-26T17:47:02.822Z,18.87
2023-07-26T17:49:29.288Z,18.61
2023-07-26T17:51:55.745Z,18.67
2023-07-26T17:54:22.125Z,18.66
2023-07-26T17:56:50.979Z,18.67
2023-07-26T17:59:18.708Z,18.83
2023-07-26T18:01:45.089Z,18.96
2023-07-26T18:04:11.499Z,18.83
2023-07-26T18:06:37.947Z,18.76
2023-07-26T18:09:05.732Z,18.83
2023-07-26T18:11:32.177Z,18.84
2023-07-26T18:13:58.588Z,18.75
2023-07-26T18:16:24.970Z,18.83
2023-07-26T18:18:51.997Z,18.79
2023-07-26T18:21:18.595Z,18.76
2023-07-26T18:23:45.064Z,18.52
2023-07-26T18:26:11.709Z,18.42
2023-07-26T18:28:40.411Z,18.21
2023-07-26T18:31:09.130Z,18.16
2023-07-26T18:33:36.232Z,18.14
2023-07-26T18:36:02.775Z,18.15
2023-07-26T18:38:30.227Z,18.12
2023-07-26T18:40:57.691Z,18.08
2023-07-26T18:43:24.138Z,17.96
2023-07-26T18:45:50.631Z,17.94
2023-07-26T18:48:17.140Z,17.94
2023-07-26T18:50:43.618Z,17.91
2023-07-26T18:53:10.236Z,17.82
2023-07-26T18:55:39.617Z,17.52
2023-07-26T18:58:06.046Z,17.41
2023-07-26T19:00:32.468Z,17.33
2023-07-26T19:02:58.981Z,17.30
2023-07-26T19:05:25.404Z,17.34
2023-07-26T19:07:51.745Z,17.27
2023-07-26T19:10:18.233Z,17.19
2023-07-26T19:12:44.738Z,17.12
2023-07-26T19:15:13.674Z,17.06
2023-07-26T19:17:40.123Z,17.02
2023-07-26T19:20:07.624Z,16.90
2023-07-26T19:22:33.997Z,16.88
2023-07-26T19:25:00.463Z,16.89
2023-07-26T19:27:26.955Z,16.86
2023-07-26T19:29:54.058Z,16.80
2023-07-26T19:32:20.454Z,16.74
2023-07-26T19:34:46.874Z,16.70
2023-07-26T19:37:13.276Z,16.67
2023-07-26T19:39:39.670Z,16.60
2023-07-26T19:42:06.662Z,16.47
2023-07-26T19:44:33.064Z,16.39
2023-07-26T19:46:59.450Z,16.32
2023-07-26T19:49:26.141Z,16.28
2023-07-26T19:51:52.488Z,16.24
2023-07-26T19:54:19.435Z,16.26
2023-07-26T19:56:45.850Z,16.08
2023-07-26T19:59:13.268Z,15.97
2023-07-26T20:01:41.643Z,15.92
2023-07-26T20:04:08.238Z,15.91
2023-07-26T20:06:34.929Z,15.88
2023-07-26T20:09:01.556Z,15.83
2023-07-26T20:11:27.959Z,15.77
2023-07-26T20:13:54.334Z,15.76
2023-07-26T20:16:21.890Z,15.75
2023-07-26T20:18:48.397Z,15.70
2023-07-26T20:21:14.754Z,15.67
2023-07-26T20:23:41.108Z,15.64
2023-07-26T20:26:07.520Z,15.61
2023-07-26T20:28:33.960Z,15.49
2023-07-26T20:31:01.872Z,15.43
2023-07-26T20:33:28.253Z,15.42
2023-07-26T20:35:54.787Z,15.36
2023-07-26T20:38:21.149Z,15.30
2023-07-26T20:40:50.570Z,15.24
2023-07-26T20:43:17.042Z,15.14
2023-07-26T20:45:43.412Z,15.08
2023-07-26T20:48:09.891Z,15.04
2023-07-26T20:50:36.650Z,15.01
2023-07-26T20:53:03.440Z,14.96
2023-07-26T20:55:29.831Z,14.90
2023-07-26T20:57:56.208Z,14.89
2023-07-26T21:00:22.617Z,14.84
2023-07-26T21:02:49.182Z,14.85
2023-07-26T21:05:16.493Z,14.79
2023-07-26T21:07:43.108Z,14.60
2023-07-26T21:10:09.720Z,14.54
2023-07-26T21:12:38.100Z,14.41
2023-07-26T21:15:06.122Z,14.39
2023-07-26T21:17:32.599Z,14.40
2023-07-26T21:19:59.086Z,14.33
2023-07-26T21:22:25.478Z,14.33
2023-07-26T21:24:51.982Z,14.29
2023-07-26T21:27:18.507Z,14.18
2023-07-26T21:29:44.865Z,14.17
2023-07-26T21:32:11.326Z,14.11
2023-07-26T21:34:37.778Z,14.08
2023-07-26T21:37:04.314Z,14.05
2023-07-26T21:39:30.808Z,14.01
2023-07-26T21:41:57.187Z,13.95
2023-07-26T21:44:27.432Z,13.91
2023-07-26T21:46:55.403Z,13.89
2023-07-26T21:49:21.790Z,13.83
2023-07-26T21:51:48.443Z,13.82
2023-07-26T21:54:15.000Z,13.84
2023-07-26T21:56:41.415Z,13.79
2023-07-26T21:59:09.969Z,13.76
2023-07-26T22:01:36.934Z,13.72
2023-07-26T22:04:03.824Z,13.67
2023-07-26T22:06:30.349Z,13.61
2023-07-26T22:08:56.780Z,13.64
2023-07-26T22:11:23.234Z,13.64
2023-07-26T22:13:49.633Z,13.65
2023-07-26T22:16:16.184Z,13.68
2023-07-26T22:18:42.615Z,13.68
2023-07-26T22:21:16.518Z,13.59
2023-07-26T22:23:43.833Z,13.62
2023-07-26T22:26:14.022Z,13.32
2023-07-26T22:28:42.068Z,13.21
2023-07-26T22:31:08.573Z,13.13
2023-07-26T22:33:35.222Z,13.02
2023-07-26T22:36:04.929Z,12.95
2023-07-26T22:38:31.371Z,12.99
2023-07-26T22:40:57.795Z,12.96
2023-07-26T22:43:24.148Z,12.91
2023-07-26T22:45:50.743Z,12.92
2023-07-26T22:48:17.189Z,12.84
2023-07-26T22:50:43.613Z,12.79
2023-07-26T22:53:10.002Z,12.78
2023-07-26T22:55:36.346Z,12.73
2023-07-26T22:58:02.760Z,12.75
2023-07-26T23:00:29.168Z,12.76
2023-07-26T23:02:55.671Z,12.75
2023-07-26T23:05:22.212Z,12.71
2023-07-26T23:07:48.670Z,12.76
2023-07-26T23:10:15.061Z,12.74
2023-07-26T23:12:41.444Z,12.76
2023-07-26T23:15:07.930Z,12.76
2023-07-26T23:17:34.377Z,12.76
2023-07-26T23:20:00.815Z,12.79
2023-07-26T23:22:27.306Z,12.81
2023-07-26T23:24:53.759Z,12.76
2023-07-26T23:27:20.129Z,12.78
2023-07-26T23:29:46.778Z,12.79
2023-07-26T23:32:13.179Z,12.80
2023-07-26T23:34:39.548Z,12.78
2023-07-26T23:37:06.021Z,12.75
2023-07-26T23:39:33.129Z,12.73
2023-07-26T23:41:59.510Z,12.78
2023-07-26T23:44:26.390Z,12.72
2023-07-26T23:46:52.790Z,12.71
2023-07-26T23:49:19.200Z,12.69
2023-07-26T23:51:45.602Z,12.68
2023-07-26T23:54:11.958Z,12.61
2023-07-26T23:56:38.357Z,12.59
2023-07-26T23:59:04.778Z,12.59
